sensor_id;sensor_type;location;lat;lon;timestamp;P1;durP1;ratioP1;P2;durP2;ratioP2
16288;SDS011;26089;43.538;5.250;2022-08-19T00:00:17;3.70;;;3.40;;
16288;SDS011;26089;43.538;5.250;2022-08-19T00:02:44;3.10;;;2.70;;
16288;SDS011;26089;43.538;5.250;2022-08-19T00:05:12;3.27;;;3.07;;
16288;SDS011;26089;43.538;5.250;2022-08-19T00:07:40;3.00;;;2.60;;
16288;SDS011;26089;43.538;5.250;2022-08-19T00:10:09;3.17;;;2.97;;
16288;SDS011;26089;43.538;5.250;2022-08-19T00:12:38;2.83;;;2.63;;
16288;SDS011;26089;43.538;5.250;2022-08-19T00:15:05;3.00;;;2.80;;
16288;SDS011;26089;43.538;5.250;2022-08-19T00:17:38;3.33;;;2.97;;
16288;SDS011;26089;43.538;5.250;2022-08-19T00:20:06;3.93;;;3.10;;
16288;SDS011;26089;43.538;5.250;2022-08-19T00:22:35;3.17;;;2.97;;
16288;SDS011;26089;43.538;5.250;2022-08-19T00:25:03;2.90;;;2.70;;
16288;SDS011;26089;43.538;5.250;2022-08-19T00:27:30;2.80;;;2.57;;
16288;SDS011;26089;43.538;5.250;2022-08-19T00:29:59;2.53;;;2.33;;
16288;SDS011;26089;43.538;5.250;2022-08-19T00:32:28;3.20;;;2.40;;
16288;SDS011;26089;43.538;5.250;2022-08-19T00:34:55;3.17;;;2.90;;
16288;SDS011;26089;43.538;5.250;2022-08-19T00:37:23;2.53;;;2.43;;
16288;SDS011;26089;43.538;5.250;2022-08-19T00:39:52;2.97;;;2.77;;
16288;SDS011;26089;43.538;5.250;2022-08-19T00:42:21;2.50;;;2.30;;
16288;SDS011;26089;43.538;5.250;2022-08-19T00:44:49;2.70;;;2.60;;
16288;SDS011;26089;43.538;5.250;2022-08-19T00:47:17;2.83;;;2.63;;
16288;SDS011;26089;43.538;5.250;2022-08-19T00:49:45;2.30;;;2.10;;
16288;SDS011;26089;43.538;5.250;2022-08-19T00:52:19;2.43;;;2.33;;
16288;SDS011;26089;43.538;5.250;2022-08-19T00:54:49;2.90;;;2.67;;
16288;SDS011;26089;43.538;5.250;2022-08-19T00:57:18;2.90;;;2.50;;
16288;SDS011;26089;43.538;5.250;2022-08-19T00:59:52;2.90;;;2.70;;
16288;SDS011;26089;43.538;5.250;2022-08-19T01:02:23;2.47;;;2.37;;
16288;SDS011;26089;43.538;5.250;2022-08-19T01:04:52;2.63;;;2.40;;
16288;SDS011;26089;43.538;5.250;2022-08-19T01:07:19;2.80;;;2.60;;
16288;SDS011;26089;43.538;5.250;2022-08-19T01:09:46;2.47;;;2.37;;
16288;SDS011;26089;43.538;5.250;2022-08-19T01:12:14;2.40;;;2.30;;
16288;SDS011;26089;43.538;5.250;2022-08-19T01:14:41;2.43;;;2.33;;
16288;SDS011;26089;43.538;5.250;2022-08-19T01:17:10;2.20;;;2.10;;
16288;SDS011;26089;43.538;5.250;2022-08-19T01:19:40;2.40;;;2.20;;
16288;SDS011;26089;43.538;5.250;2022-08-19T01:22:10;2.70;;;2.50;;
16288;SDS011;26089;43.538;5.250;2022-08-19T01:24:42;2.60;;;2.40;;
16288;SDS011;26089;43.538;5.250;2022-08-19T01:27:10;2.97;;;2.33;;
16288;SDS011;26089;43.538;5.250;2022-08-19T01:29:37;2.53;;;2.33;;
16288;SDS011;26089;43.538;5.250;2022-08-19T01:32:07;3.13;;;2.80;;
16288;SDS011;26089;43.538;5.250;2022-08-19T01:34:37;2.40;;;2.30;;
16288;SDS011;26089;43.538;5.250;2022-08-19T01:37:05;2.40;;;2.07;;
16288;SDS011;26089;43.538;5.250;2022-08-19T01:39:37;2.33;;;2.23;;
16288;SDS011;26089;43.538;5.250;2022-08-19T01:42:06;2.27;;;2.07;;
16288;SDS011;26089;43.538;5.250;2022-08-19T01:44:36;2.80;;;2.60;;
16288;SDS011;26089;43.538;5.250;2022-08-19T01:47:03;2.70;;;2.20;;
16288;SDS011;26089;43.538;5.250;2022-08-19T01:49:31;2.37;;;2.27;;
16288;SDS011;26089;43.538;5.250;2022-08-19T01:51:59;3.30;;;2.63;;
16288;SDS011;26089;43.538;5.250;2022-08-19T01:54:27;3.50;;;3.17;;
16288;SDS011;26089;43.538;5.250;2022-08-19T01:56:55;2.53;;;2.33;;
16288;SDS011;26089;43.538;5.250;2022-08-19T01:59:27;2.80;;;2.60;;
16288;SDS011;26089;43.538;5.250;2022-08-19T02:01:55;2.60;;;2.50;;
16288;SDS011;26089;43.538;5.250;2022-08-19T02:04:22;2.87;;;2.70;;
16288;SDS011;26089;43.538;5.250;2022-08-19T02:06:50;2.80;;;2.50;;
16288;SDS011;26089;43.538;5.250;2022-08-19T02:09:17;2.50;;;2.40;;
16288;SDS011;26089;43.538;5.250;2022-08-19T02:11:44;2.40;;;2.20;;
16288;SDS011;26089;43.538;5.250;2022-08-19T02:14:11;3.07;;;2.37;;
16288;SDS011;26089;43.538;5.250;2022-08-19T02:16:40;2.27;;;2.17;;
16288;SDS011;26089;43.538;5.250;2022-08-19T02:19:07;2.97;;;2.70;;
16288;SDS011;26089;43.538;5.250;2022-08-19T02:21:35;2.60;;;2.40;;
16288;SDS011;26089;43.538;5.250;2022-08-19T02:24:03;2.60;;;2.50;;
16288;SDS011;26089;43.538;5.250;2022-08-19T02:26:31;2.50;;;2.40;;
16288;SDS011;26089;43.538;5.250;2022-08-19T02:28:59;2.50;;;2.30;;
16288;SDS011;26089;43.538;5.250;2022-08-19T02:31:27;2.63;;;2.53;;
16288;SDS011;26089;43.538;5.250;2022-08-19T02:33:56;2.33;;;2.23;;
16288;SDS011;26089;43.538;5.250;2022-08-19T02:36:23;3.03;;;2.83;;
16288;SDS011;26089;43.538;5.250;2022-08-19T02:38:52;2.83;;;2.63;;
16288;SDS011;26089;43.538;5.250;2022-08-19T02:41:19;3.03;;;2.83;;
16288;SDS011;26089;43.538;5.250;2022-08-19T02:43:48;2.40;;;2.30;;
16288;SDS011;26089;43.538;5.250;2022-08-19T02:46:16;3.33;;;2.70;;
16288;SDS011;26089;43.538;5.250;2022-08-19T02:48:46;2.80;;;2.60;;
16288;SDS011;26089;43.538;5.250;2022-08-19T02:51:17;2.90;;;2.70;;
16288;SDS011;26089;43.538;5.250;2022-08-19T02:53:45;2.83;;;2.63;;
16288;SDS011;26089;43.538;5.250;2022-08-19T02:56:12;2.73;;;2.63;;
16288;SDS011;26089;43.538;5.250;2022-08-19T02:58:39;3.13;;;2.93;;
16288;SDS011;26089;43.538;5.250;2022-08-19T03:01:08;2.83;;;2.63;;
16288;SDS011;26089;43.538;5.250;2022-08-19T03:03:36;2.80;;;2.60;;
16288;SDS011;26089;43.538;5.250;2022-08-19T03:06:06;3.67;;;3.10;;
16288;SDS011;26089;43.538;5.250;2022-08-19T03:08:36;3.00;;;2.80;;
16288;SDS011;26089;43.538;5.250;2022-08-19T03:11:03;3.80;;;3.10;;
16288;SDS011;26089;43.538;5.250;2022-08-19T03:13:30;3.40;;;3.20;;
16288;SDS011;26089;43.538;5.250;2022-08-19T03:15:58;2.93;;;2.73;;
16288;SDS011;26089;43.538;5.250;2022-08-19T03:18:25;3.67;;;3.40;;
16288;SDS011;26089;43.538;5.250;2022-08-19T03:20:52;3.23;;;3.03;;
16288;SDS011;26089;43.538;5.250;2022-08-19T03:23:19;3.73;;;3.43;;
16288;SDS011;26089;43.538;5.250;2022-08-19T03:25:49;3.30;;;3.00;;
16288;SDS011;26089;43.538;5.250;2022-08-19T03:28:18;3.50;;;3.30;;
16288;SDS011;26089;43.538;5.250;2022-08-19T03:30:54;3.93;;;3.37;;
16288;SDS011;26089;43.538;5.250;2022-08-19T03:33:23;4.67;;;3.87;;
16288;SDS011;26089;43.538;5.250;2022-08-19T03:36:02;3.70;;;3.50;;
16288;SDS011;26089;43.538;5.250;2022-08-19T03:38:32;3.87;;;3.57;;
16288;SDS011;26089;43.538;5.250;2022-08-19T03:41:03;4.67;;;4.27;;
16288;SDS011;26089;43.538;5.250;2022-08-19T03:43:34;4.40;;;3.67;;
16288;SDS011;26089;43.538;5.250;2022-08-19T03:46:03;3.67;;;3.37;;
16288;SDS011;26089;43.538;5.250;2022-08-19T03:48:32;3.43;;;3.23;;
16288;SDS011;26089;43.538;5.250;2022-08-19T03:51:00;3.67;;;3.37;;
16288;SDS011;26089;43.538;5.250;2022-08-19T03:53:28;3.10;;;2.90;;
16288;SDS011;26089;43.538;5.250;2022-08-19T03:55:56;3.33;;;3.13;;
16288;SDS011;26089;43.538;5.250;2022-08-19T03:58:27;3.23;;;3.03;;
16288;SDS011;26089;43.538;5.250;2022-08-19T04:00:55;3.37;;;3.17;;
16288;SDS011;26089;43.538;5.250;2022-08-19T04:03:23;3.33;;;3.20;;
16288;SDS011;26089;43.538;5.250;2022-08-19T04:05:51;3.10;;;2.90;;
16288;SDS011;26089;43.538;5.250;2022-08-19T04:08:19;3.03;;;2.83;;
16288;SDS011;26089;43.538;5.250;2022-08-19T04:10:47;3.03;;;2.90;;
16288;SDS011;26089;43.538;5.250;2022-08-19T04:13:15;3.23;;;3.07;;
16288;SDS011;26089;43.538;5.250;2022-08-19T04:15:44;3.00;;;2.77;;
16288;SDS011;26089;43.538;5.250;2022-08-19T04:18:12;2.87;;;2.67;;
16288;SDS011;26089;43.538;5.250;2022-08-19T04:20:40;2.60;;;2.47;;
16288;SDS011;26089;43.538;5.250;2022-08-19T04:23:09;2.57;;;2.40;;
16288;SDS011;26089;43.538;5.250;2022-08-19T04:25:37;2.60;;;2.50;;
16288;SDS011;26089;43.538;5.250;2022-08-19T04:28:05;3.33;;;3.07;;
16288;SDS011;26089;43.538;5.250;2022-08-19T04:30:37;2.90;;;2.73;;
16288;SDS011;26089;43.538;5.250;2022-08-19T04:33:06;3.20;;;3.00;;
16288;SDS011;26089;43.538;5.250;2022-08-19T04:35:34;3.07;;;2.87;;
16288;SDS011;26089;43.538;5.250;2022-08-19T04:38:03;3.20;;;3.00;;
16288;SDS011;26089;43.538;5.250;2022-08-19T04:40:30;3.20;;;3.00;;
16288;SDS011;26089;43.538;5.250;2022-08-19T04:43:15;3.10;;;2.90;;
16288;SDS011;26089;43.538;5.250;2022-08-19T04:45:42;3.43;;;3.23;;
16288;SDS011;26089;43.538;5.250;2022-08-19T04:48:11;2.60;;;2.50;;
16288;SDS011;26089;43.538;5.250;2022-08-19T04:50:39;3.20;;;2.90;;
16288;SDS011;26089;43.538;5.250;2022-08-19T04:53:07;2.97;;;2.80;;
16288;SDS011;26089;43.538;5.250;2022-08-19T04:55:37;5.30;;;3.27;;
16288;SDS011;26089;43.538;5.250;2022-08-19T04:58:05;3.33;;;2.90;;
16288;SDS011;26089;43.538;5.250;2022-08-19T05:00:32;4.67;;;2.83;;
16288;SDS011;26089;43.538;5.250;2022-08-19T05:02:59;3.30;;;3.10;;
16288;SDS011;26089;43.538;5.250;2022-08-19T05:05:28;3.63;;;3.10;;
16288;SDS011;26089;43.538;5.250;2022-08-19T05:07:56;3.20;;;2.90;;
16288;SDS011;26089;43.538;5.250;2022-08-19T05:10:23;3.53;;;3.00;;
16288;SDS011;26089;43.538;5.250;2022-08-19T05:12:50;2.97;;;2.70;;
16288;SDS011;26089;43.538;5.250;2022-08-19T05:15:18;2.70;;;2.60;;
16288;SDS011;26089;43.538;5.250;2022-08-19T05:17:45;3.27;;;2.53;;
16288;SDS011;26089;43.538;5.250;2022-08-19T05:20:25;3.17;;;2.97;;
16288;SDS011;26089;43.538;5.250;2022-08-19T05:23:12;2.97;;;2.77;;
16288;SDS011;26089;43.538;5.250;2022-08-19T05:25:40;2.53;;;2.43;;
16288;SDS011;26089;43.538;5.250;2022-08-19T05:28:07;3.00;;;2.80;;
16288;SDS011;26089;43.538;5.250;2022-08-19T05:30:34;3.10;;;2.90;;
16288;SDS011;26089;43.538;5.250;2022-08-19T05:33:01;3.57;;;2.80;;
16288;SDS011;26089;43.538;5.250;2022-08-19T05:35:28;3.07;;;2.83;;
16288;SDS011;26089;43.538;5.250;2022-08-19T05:37:56;3.00;;;2.80;;
16288;SDS011;26089;43.538;5.250;2022-08-19T05:40:24;3.30;;;2.93;;
16288;SDS011;26089;43.538;5.250;2022-08-19T05:42:51;3.20;;;2.90;;
16288;SDS011;26089;43.538;5.250;2022-08-19T05:45:18;3.57;;;2.80;;
16288;SDS011;26089;43.538;5.250;2022-08-19T05:47:46;3.40;;;2.90;;
16288;SDS011;26089;43.538;5.250;2022-08-19T05:50:14;3.20;;;3.00;;
16288;SDS011;26089;43.538;5.250;2022-08-19T05:52:42;3.57;;;2.90;;
16288;SDS011;26089;43.538;5.250;2022-08-19T05:55:10;4.30;;;2.63;;
16288;SDS011;26089;43.538;5.250;2022-08-19T05:57:38;3.13;;;2.90;;
16288;SDS011;26089;43.538;5.250;2022-08-19T06:00:06;3.33;;;2.77;;
16288;SDS011;26089;43.538;5.250;2022-08-19T06:02:35;6.00;;;2.83;;
16288;SDS011;26089;43.538;5.250;2022-08-19T06:05:03;2.90;;;2.63;;
16288;SDS011;26089;43.538;5.250;2022-08-19T06:07:34;2.97;;;2.77;;
16288;SDS011;26089;43.538;5.250;2022-08-19T06:10:01;6.00;;;3.03;;
16288;SDS011;26089;43.538;5.250;2022-08-19T06:12:28;2.50;;;2.40;;
16288;SDS011;26089;43.538;5.250;2022-08-19T06:15:00;3.10;;;2.90;;
16288;SDS011;26089;43.538;5.250;2022-08-19T06:17:31;2.60;;;2.47;;
16288;SDS011;26089;43.538;5.250;2022-08-19T06:19:59;2.57;;;2.47;;
16288;SDS011;26089;43.538;5.250;2022-08-19T06:22:27;2.90;;;2.70;;
16288;SDS011;26089;43.538;5.250;2022-08-19T06:24:54;2.70;;;2.60;;
16288;SDS011;26089;43.538;5.250;2022-08-19T06:27:21;3.73;;;2.73;;
16288;SDS011;26089;43.538;5.250;2022-08-19T06:29:49;3.00;;;2.77;;
16288;SDS011;26089;43.538;5.250;2022-08-19T06:32:18;2.80;;;2.60;;
16288;SDS011;26089;43.538;5.250;2022-08-19T06:34:45;2.60;;;2.40;;
16288;SDS011;26089;43.538;5.250;2022-08-19T06:37:12;3.20;;;2.57;;
16288;SDS011;26089;43.538;5.250;2022-08-19T06:39:40;2.90;;;2.70;;
16288;SDS011;26089;43.538;5.250;2022-08-19T06:42:09;2.97;;;2.77;;
16288;SDS011;26089;43.538;5.250;2022-08-19T06:44:38;3.47;;;2.50;;
16288;SDS011;26089;43.538;5.250;2022-08-19T06:47:08;2.90;;;2.70;;
16288;SDS011;26089;43.538;5.250;2022-08-19T06:49:39;5.10;;;2.67;;
16288;SDS011;26089;43.538;5.250;2022-08-19T06:52:06;3.67;;;3.23;;
16288;SDS011;26089;43.538;5.250;2022-08-19T06:54:33;3.13;;;2.53;;
16288;SDS011;26089;43.538;5.250;2022-08-19T06:57:01;3.00;;;2.77;;
16288;SDS011;26089;43.538;5.250;2022-08-19T06:59:29;3.17;;;2.80;;
16288;SDS011;26089;43.538;5.250;2022-08-19T07:01:58;2.57;;;2.40;;
16288;SDS011;26089;43.538;5.250;2022-08-19T07:04:29;3.17;;;2.70;;
16288;SDS011;26089;43.538;5.250;2022-08-19T07:06:59;2.63;;;2.53;;
16288;SDS011;26089;43.538;5.250;2022-08-19T07:09:28;2.73;;;2.53;;
16288;SDS011;26089;43.538;5.250;2022-08-19T07:11:55;2.90;;;2.70;;
16288;SDS011;26089;43.538;5.250;2022-08-19T07:14:23;3.20;;;2.90;;
16288;SDS011;26089;43.538;5.250;2022-08-19T07:16:52;3.20;;;2.90;;
16288;SDS011;26089;43.538;5.250;2022-08-19T07:19:21;4.57;;;3.23;;
16288;SDS011;26089;43.538;5.250;2022-08-19T07:21:50;4.47;;;3.00;;
16288;SDS011;26089;43.538;5.250;2022-08-19T07:24:19;3.30;;;2.70;;
16288;SDS011;26089;43.538;5.250;2022-08-19T07:26:49;3.40;;;3.10;;
16288;SDS011;26089;43.538;5.250;2022-08-19T07:29:18;3.63;;;3.20;;
16288;SDS011;26089;43.538;5.250;2022-08-19T07:31:47;4.60;;;3.20;;
16288;SDS011;26089;43.538;5.250;2022-08-19T07:34:15;3.93;;;3.63;;
16288;SDS011;26089;43.538;5.250;2022-08-19T07:36:43;3.40;;;3.10;;
16288;SDS011;26089;43.538;5.250;2022-08-19T07:39:11;3.47;;;3.17;;
16288;SDS011;26089;43.538;5.250;2022-08-19T07:41:41;3.70;;;3.43;;
16288;SDS011;26089;43.538;5.250;2022-08-19T07:44:09;3.80;;;3.57;;
16288;SDS011;26089;43.538;5.250;2022-08-19T07:46:38;4.73;;;3.80;;
16288;SDS011;26089;43.538;5.250;2022-08-19T07:49:07;3.77;;;3.30;;
16288;SDS011;26089;43.538;5.250;2022-08-19T07:51:38;3.57;;;3.37;;
16288;SDS011;26089;43.538;5.250;2022-08-19T07:54:05;4.20;;;3.77;;
16288;SDS011;26089;43.538;5.250;2022-08-19T07:56:32;6.60;;;3.80;;
16288;SDS011;26089;43.538;5.250;2022-08-19T07:59:00;5.77;;;3.80;;
16288;SDS011;26089;43.538;5.250;2022-08-19T08:01:28;4.17;;;3.87;;
16288;SDS011;26089;43.538;5.250;2022-08-19T08:03:55;4.10;;;3.70;;
16288;SDS011;26089;43.538;5.250;2022-08-19T08:06:41;3.40;;;3.20;;
16288;SDS011;26089;43.538;5.250;2022-08-19T08:09:29;8.00;;;4.23;;
16288;SDS011;26089;43.538;5.250;2022-08-19T08:11:59;5.07;;;3.83;;
16288;SDS011;26089;43.538;5.250;2022-08-19T08:14:30;4.17;;;3.87;;
16288;SDS011;26089;43.538;5.250;2022-08-19T08:17:00;4.20;;;3.80;;
16288;SDS011;26089;43.538;5.250;2022-08-19T08:19:27;3.63;;;3.20;;
16288;SDS011;26089;43.538;5.250;2022-08-19T08:21:56;4.43;;;4.03;;
16288;SDS011;26089;43.538;5.250;2022-08-19T08:24:26;4.10;;;3.83;;
16288;SDS011;26089;43.538;5.250;2022-08-19T08:26:55;4.50;;;4.10;;
16288;SDS011;26089;43.538;5.250;2022-08-19T08:29:23;4.03;;;3.83;;
16288;SDS011;26089;43.538;5.250;2022-08-19T08:31:52;4.33;;;3.93;;
16288;SDS011;26089;43.538;5.250;2022-08-19T08:34:20;5.70;;;3.83;;
16288;SDS011;26089;43.538;5.250;2022-08-19T08:36:47;5.07;;;3.47;;
16288;SDS011;26089;43.538;5.250;2022-08-19T08:39:17;4.30;;;4.00;;
16288;SDS011;26089;43.538;5.250;2022-08-19T08:41:47;4.23;;;3.93;;
16288;SDS011;26089;43.538;5.250;2022-08-19T08:44:23;4.03;;;3.63;;
16288;SDS011;26089;43.538;5.250;2022-08-19T08:46:59;4.33;;;3.93;;
16288;SDS011;26089;43.538;5.250;2022-08-19T08:49:31;4.50;;;4.10;;
16288;SDS011;26089;43.538;5.250;2022-08-19T08:52:04;4.13;;;3.83;;
16288;SDS011;26089;43.538;5.250;2022-08-19T08:54:34;4.20;;;3.90;;
16288;SDS011;26089;43.538;5.250;2022-08-19T08:57:06;3.93;;;3.63;;
16288;SDS011;26089;43.538;5.250;2022-08-19T08:59:39;4.50;;;4.10;;
16288;SDS011;26089;43.538;5.250;2022-08-19T09:02:09;4.07;;;3.53;;
16288;SDS011;26089;43.538;5.250;2022-08-19T09:04:36;4.67;;;3.50;;
16288;SDS011;26089;43.538;5.250;2022-08-19T09:07:12;4.63;;;4.10;;
16288;SDS011;26089;43.538;5.250;2022-08-19T09:09:50;3.92;;;3.63;;
16288;SDS011;26089;43.538;5.250;2022-08-19T09:12:21;4.03;;;3.70;;
16288;SDS011;26089;43.538;5.250;2022-08-19T09:14:53;4.97;;;3.83;;
16288;SDS011;26089;43.538;5.250;2022-08-19T09:17:26;4.13;;;3.50;;
16288;SDS011;26089;43.538;5.250;2022-08-19T09:19:56;4.10;;;3.38;;
16288;SDS011;26089;43.538;5.250;2022-08-19T09:22:25;6.13;;;3.40;;
16288;SDS011;26089;43.538;5.250;2022-08-19T09:24:53;3.90;;;3.50;;
16288;SDS011;26089;43.538;5.250;2022-08-19T09:27:21;5.18;;;3.55;;
16288;SDS011;26089;43.538;5.250;2022-08-19T09:29:50;3.90;;;3.65;;
16288;SDS011;26089;43.538;5.250;2022-08-19T09:32:19;3.55;;;3.33;;
16288;SDS011;26089;43.538;5.250;2022-08-19T09:34:48;4.13;;;3.72;;
16288;SDS011;26089;43.538;5.250;2022-08-19T09:37:15;4.07;;;3.78;;
16288;SDS011;26089;43.538;5.250;2022-08-19T09:39:42;5.40;;;3.40;;
16288;SDS011;26089;43.538;5.250;2022-08-19T09:42:09;3.97;;;3.45;;
16288;SDS011;26089;43.538;5.250;2022-08-19T09:44:37;3.90;;;3.60;;
16288;SDS011;26089;43.538;5.250;2022-08-19T09:47:04;4.53;;;3.88;;
16288;SDS011;26089;43.538;5.250;2022-08-19T09:49:32;4.43;;;3.95;;
16288;SDS011;26089;43.538;5.250;2022-08-19T09:52:01;4.28;;;3.97;;
16288;SDS011;26089;43.538;5.250;2022-08-19T09:54:28;4.30;;;3.85;;
16288;SDS011;26089;43.538;5.250;2022-08-19T09:56:57;4.43;;;3.70;;
16288;SDS011;26089;43.538;5.250;2022-08-19T09:59:25;4.38;;;4.00;;
16288;SDS011;26089;43.538;5.250;2022-08-19T10:01:53;5.15;;;3.70;;
16288;SDS011;26089;43.538;5.250;2022-08-19T10:04:20;3.75;;;3.55;;
16288;SDS011;26089;43.538;5.250;2022-08-19T10:06:47;5.32;;;3.75;;
16288;SDS011;26089;43.538;5.250;2022-08-19T10:09:18;4.47;;;3.50;;
16288;SDS011;26089;43.538;5.250;2022-08-19T10:11:45;4.10;;;3.80;;
16288;SDS011;26089;43.538;5.250;2022-08-19T10:14:14;3.78;;;3.53;;
16288;SDS011;26089;43.538;5.250;2022-08-19T10:16:42;4.00;;;3.70;;
16288;SDS011;26089;43.538;5.250;2022-08-19T10:19:09;3.63;;;3.42;;
16288;SDS011;26089;43.538;5.250;2022-08-19T10:21:36;3.63;;;3.33;;
16288;SDS011;26089;43.538;5.250;2022-08-19T10:24:04;4.03;;;3.72;;
16288;SDS011;26089;43.538;5.250;2022-08-19T10:26:33;3.70;;;3.40;;
16288;SDS011;26089;43.538;5.250;2022-08-19T10:29:02;3.70;;;3.50;;
16288;SDS011;26089;43.538;5.250;2022-08-19T10:31:31;3.50;;;3.20;;
16288;SDS011;26089;43.538;5.250;2022-08-19T10:33:59;3.58;;;3.28;;
16288;SDS011;26089;43.538;5.250;2022-08-19T10:36:28;3.13;;;2.92;;
16288;SDS011;26089;43.538;5.250;2022-08-19T10:38:58;4.38;;;3.13;;
16288;SDS011;26089;43.538;5.250;2022-08-19T10:41:28;3.30;;;3.10;;
16288;SDS011;26089;43.538;5.250;2022-08-19T10:43:58;4.22;;;3.17;;
16288;SDS011;26089;43.538;5.250;2022-08-19T10:46:27;3.60;;;3.30;;
16288;SDS011;26089;43.538;5.250;2022-08-19T10:48:57;3.60;;;3.10;;
16288;SDS011;26089;43.538;5.250;2022-08-19T10:51:24;3.17;;;2.95;;
16288;SDS011;26089;43.538;5.250;2022-08-19T10:54:18;3.80;;;3.50;;
16288;SDS011;26089;43.538;5.250;2022-08-19T10:56:45;3.90;;;3.50;;
16288;SDS011;26089;43.538;5.250;2022-08-19T10:59:20;3.17;;;2.95;;
16288;SDS011;26089;43.538;5.250;2022-08-19T11:01:48;3.63;;;3.30;;
16288;SDS011;26089;43.538;5.250;2022-08-19T11:04:17;3.45;;;3.20;;
16288;SDS011;26089;43.538;5.250;2022-08-19T11:06:45;5.00;;;3.00;;
16288;SDS011;26089;43.538;5.250;2022-08-19T11:09:14;3.30;;;3.08;;
16288;SDS011;26089;43.538;5.250;2022-08-19T11:11:43;3.60;;;3.30;;
16288;SDS011;26089;43.538;5.250;2022-08-19T11:14:12;3.63;;;3.33;;
16288;SDS011;26089;43.538;5.250;2022-08-19T11:16:44;3.53;;;3.33;;
16288;SDS011;26089;43.538;5.250;2022-08-19T11:19:11;3.40;;;3.20;;
16288;SDS011;26089;43.538;5.250;2022-08-19T11:21:41;4.07;;;3.78;;
16288;SDS011;26089;43.538;5.250;2022-08-19T11:24:11;3.70;;;3.50;;
16288;SDS011;26089;43.538;5.250;2022-08-19T11:26:41;3.95;;;3.65;;
16288;SDS011;26089;43.538;5.250;2022-08-19T11:29:09;3.90;;;3.60;;
16288;SDS011;26089;43.538;5.250;2022-08-19T11:31:39;3.67;;;3.38;;
16288;SDS011;26089;43.538;5.250;2022-08-19T11:34:10;4.13;;;3.45;;
16288;SDS011;26089;43.538;5.250;2022-08-19T11:36:39;4.00;;;3.70;;
16288;SDS011;26089;43.538;5.250;2022-08-19T11:39:07;4.80;;;3.50;;
16288;SDS011;26089;43.538;5.250;2022-08-19T11:41:36;4.15;;;3.45;;
16288;SDS011;26089;43.538;5.250;2022-08-19T11:44:03;3.83;;;3.60;;
16288;SDS011;26089;43.538;5.250;2022-08-19T11:46:31;4.25;;;3.85;;
16288;SDS011;26089;43.538;5.250;2022-08-19T11:48:59;3.40;;;3.20;;
16288;SDS011;26089;43.538;5.250;2022-08-19T11:51:29;3.95;;;3.65;;
16288;SDS011;26089;43.538;5.250;2022-08-19T11:53:57;5.25;;;3.60;;
16288;SDS011;26089;43.538;5.250;2022-08-19T11:56:25;4.13;;;3.75;;
16288;SDS011;26089;43.538;5.250;2022-08-19T11:58:53;4.30;;;3.88;;
16288;SDS011;26089;43.538;5.250;2022-08-19T12:01:22;4.38;;;3.80;;
16288;SDS011;26089;43.538;5.250;2022-08-19T12:03:52;4.10;;;3.80;;
16288;SDS011;26089;43.538;5.250;2022-08-19T12:06:22;6.88;;;3.88;;
16288;SDS011;26089;43.538;5.250;2022-08-19T12:08:55;4.18;;;3.83;;
16288;SDS011;26089;43.538;5.250;2022-08-19T12:11:22;4.45;;;4.15;;
16288;SDS011;26089;43.538;5.250;2022-08-19T12:13:50;4.68;;;4.28;;
16288;SDS011;26089;43.538;5.250;2022-08-19T12:16:20;5.28;;;4.25;;
16288;SDS011;26089;43.538;5.250;2022-08-19T12:18:49;4.30;;;4.00;;
16288;SDS011;26089;43.538;5.250;2022-08-19T12:21:17;6.00;;;4.30;;
16288;SDS011;26089;43.538;5.250;2022-08-19T12:23:47;4.40;;;4.10;;
16288;SDS011;26089;43.538;5.250;2022-08-19T12:26:17;4.32;;;3.97;;
16288;SDS011;26089;43.538;5.250;2022-08-19T12:28:45;4.35;;;4.05;;
16288;SDS011;26089;43.538;5.250;2022-08-19T12:31:13;4.63;;;4.22;;
16288;SDS011;26089;43.538;5.250;2022-08-19T12:33:40;5.03;;;4.55;;
16288;SDS011;26089;43.538;5.250;2022-08-19T12:36:10;4.65;;;4.35;;
16288;SDS011;26089;43.538;5.250;2022-08-19T12:38:40;4.80;;;4.50;;
16288;SDS011;26089;43.538;5.250;2022-08-19T12:41:09;9.00;;;4.60;;
16288;SDS011;26089;43.538;5.250;2022-08-19T12:43:38;5.65;;;4.97;;
16288;SDS011;26089;43.538;5.250;2022-08-19T12:46:07;4.97;;;4.05;;
16288;SDS011;26089;43.538;5.250;2022-08-19T12:48:34;5.00;;;4.60;;
16288;SDS011;26089;43.538;5.250;2022-08-19T12:51:05;4.25;;;3.83;;
16288;SDS011;26089;43.538;5.250;2022-08-19T12:53:34;4.53;;;4.22;;
16288;SDS011;26089;43.538;5.250;2022-08-19T12:56:02;4.32;;;3.95;;
16288;SDS011;26089;43.538;5.250;2022-08-19T12:58:30;4.55;;;4.18;;
16288;SDS011;26089;43.538;5.250;2022-08-19T13:01:01;4.82;;;4.43;;
16288;SDS011;26089;43.538;5.250;2022-08-19T13:03:32;5.35;;;4.95;;
16288;SDS011;26089;43.538;5.250;2022-08-19T13:06:00;5.05;;;4.65;;
16288;SDS011;26089;43.538;5.250;2022-08-19T13:08:27;5.38;;;4.88;;
16288;SDS011;26089;43.538;5.250;2022-08-19T13:10:54;5.72;;;5.18;;
16288;SDS011;26089;43.538;5.250;2022-08-19T13:13:21;5.95;;;4.82;;
16288;SDS011;26089;43.538;5.250;2022-08-19T13:15:50;4.93;;;4.55;;
16288;SDS011;26089;43.538;5.250;2022-08-19T13:18:19;6.38;;;5.00;;
16288;SDS011;26089;43.538;5.250;2022-08-19T13:20:46;6.10;;;4.95;;
16288;SDS011;26089;43.538;5.250;2022-08-19T13:23:13;6.55;;;5.43;;
16288;SDS011;26089;43.538;5.250;2022-08-19T13:25:40;6.63;;;5.32;;
16288;SDS011;26089;43.538;5.250;2022-08-19T13:28:07;5.72;;;5.22;;
16288;SDS011;26089;43.538;5.250;2022-08-19T13:30:34;5.30;;;4.82;;
16288;SDS011;26089;43.538;5.250;2022-08-19T13:33:20;5.53;;;4.82;;
16288;SDS011;26089;43.538;5.250;2022-08-19T13:35:48;5.50;;;5.10;;
16288;SDS011;26089;43.538;5.250;2022-08-19T13:38:22;5.50;;;4.97;;
16288;SDS011;26089;43.538;5.250;2022-08-19T13:40:50;5.53;;;4.95;;
16288;SDS011;26089;43.538;5.250;2022-08-19T13:43:19;5.53;;;4.90;;
16288;SDS011;26089;43.538;5.250;2022-08-19T13:45:48;6.00;;;4.50;;
16288;SDS011;26089;43.538;5.250;2022-08-19T13:48:17;5.97;;;5.38;;
16288;SDS011;26089;43.538;5.250;2022-08-19T13:50:46;5.28;;;4.80;;
16288;SDS011;26089;43.538;5.250;2022-08-19T13:53:13;6.30;;;4.97;;
16288;SDS011;26089;43.538;5.250;2022-08-19T13:55:41;5.45;;;5.00;;
16288;SDS011;26089;43.538;5.250;2022-08-19T13:58:09;6.10;;;5.50;;
16288;SDS011;26089;43.538;5.250;2022-08-19T14:00:38;6.07;;;5.55;;
16288;SDS011;26089;43.538;5.250;2022-08-19T14:03:07;6.65;;;4.68;;
16288;SDS011;26089;43.538;5.250;2022-08-19T14:05:36;5.75;;;5.25;;
16288;SDS011;26089;43.538;5.250;2022-08-19T14:08:04;5.93;;;5.38;;
16288;SDS011;26089;43.538;5.250;2022-08-19T14:10:31;5.90;;;5.40;;
16288;SDS011;26089;43.538;5.250;2022-08-19T14:12:59;5.60;;;4.82;;
16288;SDS011;26089;43.538;5.250;2022-08-19T14:15:28;5.45;;;5.05;;
16288;SDS011;26089;43.538;5.250;2022-08-19T14:17:56;5.57;;;5.07;;
16288;SDS011;26089;43.538;5.250;2022-08-19T14:20:24;7.75;;;4.97;;
16288;SDS011;26089;43.538;5.250;2022-08-19T14:22:53;6.80;;;5.20;;
16288;SDS011;26089;43.538;5.250;2022-08-19T14:25:21;7.85;;;5.30;;
16288;SDS011;26089;43.538;5.250;2022-08-19T14:27:50;5.97;;;5.10;;
16288;SDS011;26089;43.538;5.250;2022-08-19T14:30:19;6.43;;;4.97;;
16288;SDS011;26089;43.538;5.250;2022-08-19T14:32:48;6.97;;;4.93;;
16288;SDS011;26089;43.538;5.250;2022-08-19T14:35:15;5.57;;;5.07;;
16288;SDS011;26089;43.538;5.250;2022-08-19T14:37:43;5.75;;;5.05;;
16288;SDS011;26089;43.538;5.250;2022-08-19T14:40:13;5.82;;;5.18;;
16288;SDS011;26089;43.538;5.250;2022-08-19T14:42:41;5.05;;;4.65;;
16288;SDS011;26089;43.538;5.250;2022-08-19T14:45:09;5.22;;;4.72;;
16288;SDS011;26089;43.538;5.250;2022-08-19T14:47:36;7.10;;;4.78;;
16288;SDS011;26089;43.538;5.250;2022-08-19T14:50:04;5.93;;;4.88;;
16288;SDS011;26089;43.538;5.250;2022-08-19T14:52:32;5.03;;;4.57;;
16288;SDS011;26089;43.538;5.250;2022-08-19T14:54:59;6.50;;;4.80;;
16288;SDS011;26089;43.538;5.250;2022-08-19T14:57:28;5.55;;;4.47;;